createdAt,value
2023-03-12T00:01:24.907Z,22.52
2023-03-12T00:03:54.949Z,22.53
2023-03-12T00:06:23.454Z,22.57
2023-03-12T00:08:51.763Z,22.58
2023-03-12T00:11:22.118Z,22.61
2023-03-12T00:13:52.482Z,22.66
2023-03-12T00:16:21.675Z,22.70
2023-03-12T00:18:51.826Z,22.72
2023-03-12T00:21:22.249Z,22.77
2023-03-12T00:23:51.284Z,22.82
2023-03-12T00:26:21.074Z,22.87
2023-03-12T00:28:51.071Z,22.92
2023-03-12T00:31:23.376Z,22.99
2023-03-12T00:33:51.998Z,23.06
2023-03-12T00:36:24.840Z,23.12
2023-03-12T00:38:53.659Z,23.22
2023-03-12T00:41:23.365Z,23.31
2023-03-12T00:43:53.094Z,23.40
2023-03-12T00:46:22.563Z,23.50
2023-03-12T00:48:51.101Z,23.59
2023-03-12T00:51:20.066Z,23.67
2023-03-12T00:53:48.456Z,23.76
2023-03-12T00:56:16.829Z,23.84
2023-03-12T00:58:45.178Z,23.90
2023-03-12T01:01:14.006Z,23.92
2023-03-12T01:03:42.693Z,23.94
2023-03-12T01:06:11.080Z,23.96
2023-03-12T01:08:39.398Z,23.97
2023-03-12T01:11:07.691Z,23.98
2023-03-12T01:13:36.201Z,24.00
2023-03-12T01:16:04.561Z,24.05
2023-03-12T01:18:32.952Z,24.10
2023-03-12T01:21:01.369Z,24.15
2023-03-12T01:23:30.055Z,24.22
2023-03-12T01:25:59.380Z,24.25
2023-03-12T01:28:28.288Z,24.32
2023-03-12T01:30:56.691Z,24.38
2023-03-12T01:33:25.131Z,24.44
2023-03-12T01:35:53.565Z,24.50
2023-03-12T01:38:22.137Z,24.57
2023-03-12T01:40:50.483Z,24.62
2023-03-12T01:43:31.245Z,24.68
2023-03-12T01:46:08.154Z,24.77
2023-03-12T01:48:51.104Z,24.84
2023-03-12T01:51:21.656Z,24.89
2023-03-12T01:53:52.797Z,24.95
2023-03-12T01:56:23.053Z,24.99
2023-03-12T01:58:55.881Z,25.05
2023-03-12T02:01:26.074Z,25.10
2023-03-12T02:03:57.108Z,25.15
2023-03-12T02:06:32.305Z,25.20
2023-03-12T02:09:02.844Z,25.22
2023-03-12T02:11:31.218Z,25.25
2023-03-12T02:13:59.686Z,25.29
2023-03-12T02:16:28.655Z,25.35
2023-03-12T02:18:58.621Z,25.41
2023-03-12T02:21:30.701Z,25.48
2023-03-12T02:24:09.502Z,25.56
2023-03-12T02:26:39.811Z,25.61
2023-03-12T02:29:10.684Z,25.64
2023-03-12T02:31:54.517Z,25.66
2023-03-12T02:34:23.128Z,25.69
2023-03-12T02:36:51.552Z,25.75
2023-03-12T02:39:22.018Z,25.84
2023-03-12T02:41:58.731Z,25.91
2023-03-12T02:44:34.238Z,25.99
2023-03-12T02:47:03.435Z,26.07
2023-03-12T02:49:35.481Z,26.14
2023-03-12T02:52:04.883Z,26.19
2023-03-12T02:54:33.473Z,26.27
2023-03-12T02:57:01.811Z,26.37
2023-03-12T02:59:30.387Z,26.42
2023-03-12T03:02:01.214Z,26.48
2023-03-12T03:04:31.738Z,26.53
2023-03-12T03:07:00.297Z,26.57
2023-03-12T03:09:28.648Z,26.58
2023-03-12T03:11:57.121Z,26.62
2023-03-12T03:14:25.449Z,26.65
2023-03-12T03:16:53.728Z,26.72
2023-03-12T03:19:22.053Z,26.78
2023-03-12T03:21:50.454Z,26.83
2023-03-12T03:24:18.841Z,26.88
2023-03-12T03:26:47.122Z,26.94
2023-03-12T03:29:16.227Z,26.96
2023-03-12T03:31:44.749Z,27.00
2023-03-12T03:34:13.570Z,27.05
2023-03-12T03:36:41.885Z,27.13
2023-03-12T03:39:10.153Z,27.19
2023-03-12T03:41:38.510Z,27.25
2023-03-12T03:44:08.739Z,27.30
2023-03-12T03:46:37.154Z,27.35
2023-03-12T03:49:05.533Z,27.42
2023-03-12T03:51:34.122Z,27.49
2023-03-12T03:54:02.490Z,27.56
2023-03-12T03:56:30.886Z,27.65
2023-03-12T03:58:59.725Z,27.69
2023-03-12T04:01:28.022Z,27.70
2023-03-12T04:03:56.325Z,27.69
2023-03-12T04:06:25.615Z,27.73
2023-03-12T04:08:53.987Z,27.75
2023-03-12T04:11:23.139Z,27.79
2023-03-12T04:13:52.121Z,27.84
2023-03-12T04:16:20.552Z,27.92
2023-03-12T04:18:48.867Z,28.02
2023-03-12T04:21:18.041Z,28.13
2023-03-12T04:23:46.397Z,28.23
2023-03-12T04:26:14.766Z,28.31
2023-03-12T04:28:43.068Z,28.40
2023-03-12T04:31:12.753Z,28.49
2023-03-12T04:33:41.459Z,28.54
2023-03-12T04:36:10.147Z,28.53
2023-03-12T04:38:38.497Z,28.57
2023-03-12T04:41:10.023Z,28.57
2023-03-12T04:43:38.534Z,28.57
2023-03-12T04:46:07.670Z,28.57
2023-03-12T04:48:36.655Z,28.59
2023-03-12T04:51:06.277Z,28.60
2023-03-12T04:53:34.818Z,28.62
2023-03-12T04:56:03.189Z,28.63
2023-03-12T04:58:31.755Z,28.68
2023-03-12T05:01:00.070Z,28.70
2023-03-12T05:03:28.574Z,28.77
2023-03-12T05:05:56.928Z,28.81
2023-03-12T05:08:25.327Z,28.87
2023-03-12T05:10:53.642Z,28.93
2023-03-12T05:13:24.177Z,29.00
2023-03-12T05:15:53.596Z,29.06
2023-03-12T05:18:22.343Z,29.13
2023-03-12T05:21:01.402Z,29.19
2023-03-12T05:23:30.600Z,29.24
2023-03-12T05:25:59.108Z,29.28
2023-03-12T05:28:29.285Z,29.30
2023-03-12T05:30:59.578Z,29.35
2023-03-12T05:33:30.094Z,29.40
2023-03-12T05:35:58.475Z,29.47
2023-03-12T05:38:26.819Z,29.55
2023-03-12T05:40:57.147Z,29.62
2023-03-12T05:43:25.492Z,29.70
2023-03-12T05:45:55.279Z,29.75
2023-03-12T05:48:23.612Z,29.78
2023-03-12T05:50:51.930Z,29.82
2023-03-12T05:53:20.206Z,29.88
2023-03-12T05:55:48.482Z,29.95
2023-03-12T05:58:17.065Z,30.02
2023-03-12T06:00:46.053Z,30.08
2023-03-12T06:03:14.537Z,30.17
2023-03-12T06:05:43.129Z,30.22
2023-03-12T06:08:11.437Z,30.28
2023-03-12T06:10:40.374Z,30.33
2023-03-12T06:13:09.696Z,30.36
2023-03-12T06:15:37.989Z,30.40
2023-03-12T06:18:06.366Z,30.43
2023-03-12T06:20:34.630Z,30.46
2023-03-12T06:23:02.956Z,30.49
2023-03-12T06:25:31.264Z,30.50
2023-03-12T06:27:59.653Z,30.54
2023-03-12T06:30:28.687Z,30.62
2023-03-12T06:32:57.125Z,30.68
2023-03-12T06:35:25.456Z,30.73
2023-03-12T06:37:53.787Z,30.79
2023-03-12T06:40:22.093Z,30.88
2023-03-12T06:42:50.406Z,30.93
2023-03-12T06:45:18.847Z,30.97
2023-03-12T06:47:47.252Z,31.02
2023-03-12T06:50:15.558Z,31.06
2023-03-12T06:52:43.988Z,31.10
2023-03-12T06:55:12.435Z,31.13
2023-03-12T06:57:40.727Z,31.16
2023-03-12T07:00:09.640Z,31.20
2023-03-12T07:02:38.054Z,31.24
2023-03-12T07:05:06.837Z,31.28
2023-03-12T07:07:35.122Z,31.31
2023-03-12T07:10:03.454Z,31.34
2023-03-12T07:12:31.720Z,31.39
2023-03-12T07:15:00.132Z,31.43
2023-03-12T07:17:28.459Z,31.45
2023-03-12T07:19:56.842Z,31.48
2023-03-12T07:22:25.495Z,31.51
2023-03-12T07:24:53.749Z,31.53
2023-03-12T07:27:22.395Z,31.52
2023-03-12T07:29:50.714Z,31.48
2023-03-12T07:32:19.055Z,31.45
2023-03-12T07:34:47.370Z,31.43
2023-03-12T07:37:15.701Z,31.45
2023-03-12T07:39:44.997Z,31.46
2023-03-12T07:42:15.928Z,31.50
2023-03-12T07:44:44.307Z,31.49
2023-03-12T07:47:23.189Z,31.50
2023-03-12T07:49:52.604Z,31.49
2023-03-12T07:52:21.240Z,31.46
2023-03-12T07:54:50.164Z,31.46
2023-03-12T07:57:19.358Z,31.44
2023-03-12T07:59:48.734Z,31.44
2023-03-12T08:02:17.265Z,31.44
2023-03-12T08:04:45.751Z,31.44
2023-03-12T08:07:14.676Z,31.42
2023-03-12T08:09:43.434Z,31.44
2023-03-12T08:12:11.837Z,31.43
2023-03-12T08:14:40.350Z,31.43
2023-03-12T08:17:08.635Z,31.43
2023-03-12T08:19:36.947Z,31.41
2023-03-12T08:22:05.338Z,31.41
2023-03-12T08:24:33.722Z,31.40
2023-03-12T08:27:02.585Z,31.40
2023-03-12T08:29:30.878Z,31.39
2023-03-12T08:32:05.021Z,31.36
2023-03-12T08:34:35.214Z,31.34
2023-03-12T08:37:03.911Z,31.33
2023-03-12T08:39:32.266Z,31.31
2023-03-12T08:42:00.718Z,31.29
2023-03-12T08:44:29.264Z,31.29
2023-03-12T08:46:57.602Z,31.30
2023-03-12T08:49:26.603Z,31.28
2023-03-12T08:51:54.917Z,31.25
2023-03-12T08:54:23.555Z,31.24
2023-03-12T08:56:53.395Z,31.21
2023-03-12T08:59:23.228Z,31.19
2023-03-12T09:01:51.838Z,31.17
2023-03-12T09:04:20.806Z,31.18
2023-03-12T09:06:49.183Z,31.17
2023-03-12T09:09:17.635Z,31.15
2023-03-12T09:11:46.345Z,31.11
2023-03-12T09:14:50.189Z,31.08
2023-03-12T09:17:03.173Z,31.04
2023-03-12T09:19:31.609Z,30.98
2023-03-12T09:22:00.070Z,30.94
2023-03-12T09:24:28.480Z,30.89
2023-03-12T09:26:56.855Z,30.86
2023-03-12T09:29:25.677Z,30.84
2023-03-12T09:31:54.002Z,30.81
2023-03-12T09:34:22.324Z,30.78
2023-03-12T09:36:50.981Z,30.74
2023-03-12T09:39:19.358Z,30.72
2023-03-12T09:41:49.563Z,30.69
2023-03-12T09:44:27.108Z,30.65
2023-03-12T09:46:59.651Z,30.61
2023-03-12T09:49:39.476Z,30.52
2023-03-12T09:52:30.574Z,30.41
2023-03-12T09:55:16.932Z,30.35
2023-03-12T09:57:47.319Z,30.25
2023-03-12T10:00:24.008Z,30.15
2023-03-12T10:03:10.695Z,30.05
2023-03-12T10:06:04.950Z,29.98
2023-03-12T10:08:54.649Z,29.91
2023-03-12T10:11:29.039Z,29.85
2023-03-12T10:14:00.421Z,29.83
2023-03-12T10:16:40.928Z,29.81
2023-03-12T10:19:24.095Z,29.80
2023-03-12T10:22:28.001Z,29.79
2023-03-12T10:25:28.029Z,29.77
2023-03-12T10:28:04.020Z,29.75
2023-03-12T10:30:34.182Z,29.72
2023-03-12T10:33:07.926Z,29.67
2023-03-12T10:35:37.392Z,29.63
2023-03-12T10:38:10.480Z,29.57
2023-03-12T10:40:39.970Z,29.48
2023-03-12T10:43:09.277Z,29.42
2023-03-12T10:45:40.553Z,29.38
2023-03-12T10:48:12.708Z,29.34
2023-03-12T10:50:42.289Z,29.27
2023-03-12T10:53:31.402Z,29.22
2023-03-12T10:56:01.467Z,29.13
2023-03-12T10:58:39.335Z,29.07
2023-03-12T11:01:31.902Z,29.01
2023-03-12T11:04:17.712Z,28.93
2023-03-12T11:07:06.252Z,28.86
2023-03-12T11:09:35.027Z,28.77
2023-03-12T11:12:03.423Z,28.70
2023-03-12T11:14:31.776Z,28.65
2023-03-12T11:17:24.340Z,28.57
2023-03-12T11:19:52.947Z,28.49
2023-03-12T11:22:34.174Z,28.43
2023-03-12T11:25:07.012Z,28.35
2023-03-12T11:27:50.714Z,28.28
2023-03-12T11:30:26.084Z,28.22
2023-03-12T11:32:56.668Z,28.16
2023-03-12T11:35:55.907Z,28.10
2023-03-12T11:39:06.903Z,28.04
2023-03-12T11:41:37.988Z,27.98
2023-03-12T11:44:06.291Z,27.94
2023-03-12T11:46:46.086Z,27.89
2023-03-12T11:49:32.506Z,27.83
2023-03-12T11:52:20.293Z,27.79
2023-03-12T11:55:27.659Z,27.73
2023-03-12T11:58:04.919Z,27.67
2023-03-12T12:00:53.441Z,27.62
2023-03-12T12:03:41.300Z,27.56
2023-03-12T12:06:29.730Z,27.50
2023-03-12T12:09:26.800Z,27.43
2023-03-12T12:12:13.420Z,27.37
2023-03-12T12:15:17.847Z,27.30
2023-03-12T12:18:24.709Z,27.23
2023-03-12T12:21:00.631Z,27.17
2023-03-12T12:23:53.392Z,27.10
2023-03-12T12:26:47.780Z,27.04
2023-03-12T12:29:30.950Z,27.01
2023-03-12T12:32:00.837Z,26.97
2023-03-12T12:34:44.987Z,26.94
2023-03-12T12:37:21.258Z,26.91
2023-03-12T12:40:21.253Z,26.86
2023-03-12T12:43:02.488Z,26.82
2023-03-12T12:45:31.304Z,26.77
2023-03-12T12:48:15.314Z,26.72
2023-03-12T12:50:45.232Z,26.69
2023-03-12T12:53:41.264Z,26.65
2023-03-12T12:56:14.967Z,26.61
2023-03-12T12:59:04.313Z,26.55
2023-03-12T13:01:35.387Z,26.51
2023-03-12T13:04:32.648Z,26.46
2023-03-12T13:07:13.147Z,26.43
2023-03-12T13:09:47.252Z,26.41
2023-03-12T13:12:20.680Z,26.39
2023-03-12T13:14:50.633Z,26.36
2023-03-12T13:17:34.975Z,26.32
2023-03-12T13:20:11.913Z,26.29
2023-03-12T13:23:01.660Z,26.26
2023-03-12T13:25:42.241Z,26.23
2023-03-12T13:28:33.444Z,26.22
2023-03-12T13:31:17.679Z,26.21
2023-03-12T13:33:49.495Z,26.18
2023-03-12T13:36:17.837Z,26.16
2023-03-12T13:39:08.783Z,26.15
2023-03-12T13:41:50.942Z,26.13
2023-03-12T13:44:25.207Z,26.11
2023-03-12T13:47:13.451Z,26.07
2023-03-12T13:49:56.267Z,26.07
2023-03-12T13:52:42.717Z,26.04
2023-03-12T13:55:30.110Z,26.03
2023-03-12T13:58:22.456Z,26.01
2023-03-12T14:01:04.842Z,26.00
2023-03-12T14:03:40.692Z,26.00
2023-03-12T14:06:14.285Z,26.03
2023-03-12T14:09:14.329Z,26.06
2023-03-12T14:12:14.848Z,26.12
2023-03-12T14:15:21.188Z,26.18
2023-03-12T14:17:58.196Z,26.22
2023-03-12T14:20:26.921Z,26.26
2023-03-12T14:23:14.434Z,26.29
2023-03-12T14:25:48.818Z,26.32
2023-03-12T14:28:26.854Z,26.35
2023-03-12T14:31:06.469Z,26.37
2023-03-12T14:33:50.591Z,26.39
2023-03-12T14:36:22.611Z,26.40
2023-03-12T14:38:51.176Z,26.41
2023-03-12T14:41:26.551Z,26.43
2023-03-12T14:43:56.067Z,26.44
2023-03-12T14:46:25.992Z,26.46
2023-03-12T14:48:58.315Z,26.47
2023-03-12T14:51:30.304Z,26.47
2023-03-12T14:54:04.223Z,26.48
2023-03-12T14:56:36.212Z,26.49
2023-03-12T14:59:32.348Z,26.49
2023-03-12T15:02:16.248Z,26.49
2023-03-12T15:04:45.371Z,26.49
2023-03-12T15:07:18.378Z,26.49
2023-03-12T15:09:53.687Z,26.51
2023-03-12T15:12:26.378Z,26.49
2023-03-12T15:15:02.595Z,26.51
2023-03-12T15:17:32.888Z,26.49
2023-03-12T15:20:10.150Z,26.48
2023-03-12T15:22:39.690Z,26.48
2023-03-12T15:25:24.371Z,26.46
2023-03-12T15:28:12.793Z,26.45
2023-03-12T15:30:41.972Z,26.46
2023-03-12T15:33:18.648Z,26.44
2023-03-12T15:36:01.589Z,26.42
2023-03-12T15:38:33.749Z,26.44
2023-03-12T15:41:12.815Z,26.41
2023-03-12T15:43:47.836Z,26.41
2023-03-12T15:46:19.551Z,26.39
2023-03-12T15:48:54.568Z,26.36
2023-03-12T15:51:41.455Z,26.36
2023-03-12T15:54:15.877Z,26.34
2023-03-12T15:56:44.381Z,26.32
2023-03-12T15:59:18.718Z,26.28
2023-03-12T16:01:57.643Z,26.23
2023-03-12T16:04:26.722Z,26.18
2023-03-12T16:06:55.036Z,26.16
2023-03-12T16:09:27.874Z,26.11
2023-03-12T16:11:57.986Z,26.07
2023-03-12T16:14:32.703Z,26.04
2023-03-12T16:17:01.299Z,26.02
2023-03-12T16:19:34.658Z,25.99
2023-03-12T16:22:03.076Z,25.94
2023-03-12T16:24:31.361Z,25.88
2023-03-12T16:27:00.908Z,25.84
2023-03-12T16:29:39.221Z,25.77
2023-03-12T16:32:16.083Z,25.76
2023-03-12T16:34:46.298Z,25.73
2023-03-12T16:37:14.689Z,25.67
2023-03-12T16:39:47.170Z,25.63
2023-03-12T16:42:18.280Z,25.61
2023-03-12T16:44:48.204Z,25.56
2023-03-12T16:47:16.743Z,25.51
2023-03-12T16:49:45.135Z,25.48
2023-03-12T16:52:21.909Z,25.46
2023-03-12T16:54:51.302Z,25.43
2023-03-12T16:57:37.027Z,25.37
2023-03-12T17:00:09.009Z,25.37
2023-03-12T17:02:37.669Z,25.33
2023-03-12T17:05:06.262Z,25.31
2023-03-12T17:07:34.545Z,25.29
2023-03-12T17:10:02.840Z,25.26
2023-03-12T17:12:37.401Z,25.23
2023-03-12T17:15:31.595Z,25.20
2023-03-12T17:18:04.181Z,25.19
2023-03-12T17:20:37.086Z,25.17
2023-03-12T17:23:06.869Z,25.15
2023-03-12T17:25:38.463Z,25.12
2023-03-12T17:28:07.558Z,25.09
2023-03-12T17:30:36.927Z,25.07
2023-03-12T17:33:09.131Z,25.05
2023-03-12T17:35:37.898Z,25.02
2023-03-12T17:38:06.760Z,25.01
2023-03-12T17:40:36.478Z,24.99
2023-03-12T17:43:04.801Z,25.01
2023-03-12T17:45:33.227Z,25.00
2023-03-12T17:48:01.525Z,25.02
2023-03-12T17:50:29.817Z,25.04
2023-03-12T17:52:58.114Z,25.03
2023-03-12T17:55:26.639Z,25.05
2023-03-12T17:57:54.947Z,25.05
2023-03-12T18:00:24.041Z,25.06
2023-03-12T18:02:52.448Z,25.05
2023-03-12T18:05:20.754Z,25.07
2023-03-12T18:07:50.050Z,25.06
2023-03-12T18:10:19.200Z,25.07
2023-03-12T18:12:47.483Z,25.07
2023-03-12T18:15:17.674Z,25.08
2023-03-12T18:17:46.108Z,25.08
2023-03-12T18:20:28.678Z,25.08
2023-03-12T18:23:04.459Z,25.07
2023-03-12T18:25:32.752Z,25.07
2023-03-12T18:28:01.040Z,25.05
2023-03-12T18:30:29.375Z,25.06
2023-03-12T18:32:57.788Z,25.04
2023-03-12T18:35:29.907Z,25.04
2023-03-12T18:37:58.795Z,25.02
2023-03-12T18:40:29.942Z,24.98
2023-03-12T18:43:02.273Z,24.98
2023-03-12T18:45:31.220Z,24.94
2023-03-12T18:47:59.851Z,24.91
2023-03-12T18:50:28.182Z,24.89
2023-03-12T18:52:56.463Z,24.87
2023-03-12T18:55:24.788Z,24.83
2023-03-12T18:57:53.121Z,24.82
2023-03-12T19:00:21.684Z,24.80
2023-03-12T19:02:50.261Z,24.78
2023-03-12T19:05:18.865Z,24.78
2023-03-12T19:07:47.240Z,24.76
2023-03-12T19:10:16.346Z,24.73
2023-03-12T19:12:53.900Z,24.70
2023-03-12T19:15:25.605Z,24.65
2023-03-12T19:17:54.947Z,24.64
2023-03-12T19:20:23.428Z,24.60
2023-03-12T19:22:51.956Z,24.56
2023-03-12T19:25:21.311Z,24.53
2023-03-12T19:27:49.706Z,24.48
2023-03-12T19:30:18.140Z,24.43
2023-03-12T19:32:46.455Z,24.41
2023-03-12T19:35:16.315Z,24.35
2023-03-12T19:37:44.711Z,24.31
2023-03-12T19:40:14.203Z,24.27
2023-03-12T19:42:42.527Z,24.22
2023-03-12T19:45:11.963Z,24.18
2023-03-12T19:47:40.308Z,24.14
2023-03-12T19:50:10.459Z,24.10
2023-03-12T19:52:38.982Z,24.07
2023-03-12T19:55:07.625Z,24.03
2023-03-12T19:57:35.964Z,23.98
2023-03-12T20:00:08.870Z,23.93
2023-03-12T20:02:38.672Z,23.87
2023-03-12T20:05:08.100Z,23.81
2023-03-12T20:07:36.945Z,23.77
2023-03-12T20:10:06.600Z,23.72
2023-03-12T20:12:34.952Z,23.67
2023-03-12T20:15:03.328Z,23.63
2023-03-12T20:17:31.805Z,23.60
2023-03-12T20:20:00.110Z,23.56
2023-03-12T20:22:28.542Z,23.54
2023-03-12T20:24:56.833Z,23.51
2023-03-12T20:27:25.146Z,23.49
2023-03-12T20:29:53.418Z,23.48
2023-03-12T20:32:22.040Z,23.46
2023-03-12T20:34:50.323Z,23.43
2023-03-12T20:37:20.332Z,23.41
2023-03-12T20:39:48.620Z,23.39
2023-03-12T20:42:16.932Z,23.40
2023-03-12T20:44:45.229Z,23.39
2023-03-12T20:47:13.511Z,23.37
2023-03-12T20:49:41.786Z,23.39
2023-03-12T20:52:10.078Z,23.40
2023-03-12T20:54:38.444Z,23.40
2023-03-12T20:57:06.728Z,23.42
2023-03-12T20:59:34.998Z,23.44
2023-03-12T21:02:03.447Z,23.46
2023-03-12T21:04:31.799Z,23.47
2023-03-12T21:07:00.151Z,23.48
2023-03-12T21:09:28.451Z,23.50
2023-03-12T21:11:57.020Z,23.50
2023-03-12T21:14:25.384Z,23.49
2023-03-12T21:16:54.021Z,23.49
2023-03-12T21:19:23.557Z,23.46
2023-03-12T21:21:51.951Z,23.44
2023-03-12T21:24:20.322Z,23.42
2023-03-12T21:26:48.645Z,23.42
2023-03-12T21:29:16.953Z,23.42
2023-03-12T21:31:45.256Z,23.41
2023-03-12T21:34:13.548Z,23.42
2023-03-12T21:36:41.926Z,23.42
2023-03-12T21:39:10.237Z,23.43
2023-03-12T21:41:38.640Z,23.43
2023-03-12T21:44:06.992Z,23.45
2023-03-12T21:46:36.341Z,23.44
2023-03-12T21:49:04.886Z,23.44
2023-03-12T21:51:33.200Z,23.43
2023-03-12T21:54:01.514Z,23.41
2023-03-12T21:56:31.226Z,23.38
2023-03-12T21:58:59.760Z,23.34
2023-03-12T22:01:28.206Z,23.29
2023-03-12T22:03:56.973Z,23.25
2023-03-12T22:06:25.493Z,23.22
2023-03-12T22:08:53.866Z,23.17
2023-03-12T22:11:22.159Z,23.13
2023-03-12T22:13:50.474Z,23.10
2023-03-12T22:16:18.945Z,23.07
2023-03-12T22:18:47.920Z,23.04
2023-03-12T22:21:22.084Z,23.01
2023-03-12T22:23:53.401Z,23.01
2023-03-12T22:26:23.934Z,23.00
2023-03-12T22:28:54.238Z,22.99
2023-03-12T22:31:24.578Z,23.00
2023-03-12T22:33:53.555Z,22.96
2023-03-12T22:36:23.167Z,22.96
2023-03-12T22:38:51.564Z,22.96
2023-03-12T22:41:26.312Z,22.99
2023-03-12T22:44:02.261Z,23.00
2023-03-12T22:46:31.074Z,23.00
2023-03-12T22:49:02.074Z,23.01
2023-03-12T22:51:32.451Z,23.02
2023-03-12T22:54:01.158Z,23.02
2023-03-12T22:56:29.804Z,23.01
2023-03-12T22:58:58.154Z,23.01
2023-03-12T23:01:26.780Z,23.00
2023-03-12T23:03:55.332Z,23.01
2023-03-12T23:06:26.218Z,23.03
2023-03-12T23:08:58.338Z,23.02
2023-03-12T23:11:29.041Z,23.02
2023-03-12T23:13:57.728Z,23.04
2023-03-12T23:16:27.699Z,23.05
2023-03-12T23:18:57.366Z,23.04
2023-03-12T23:21:26.604Z,23.05
2023-03-12T23:23:55.330Z,23.04
2023-03-12T23:26:27.632Z,23.05
2023-03-12T23:28:57.543Z,23.07
2023-03-12T23:31:28.319Z,23.07
2023-03-12T23:33:58.069Z,23.08
2023-03-12T23:36:26.660Z,23.10
2023-03-12T23:38:55.006Z,23.11
2023-03-12T23:41:25.654Z,23.15
2023-03-12T23:43:54.364Z,23.16
2023-03-12T23:46:23.015Z,23.17
2023-03-12T23:48:52.985Z,23.20
2023-03-12T23:51:22.840Z,23.24
2023-03-12T23:53:53.937Z,23.27
2023-03-12T23:56:25.208Z,23.29
2023-03-12T23:58:53.615Z,23.29
